Time;durP1;ratioP1;P1;durP2;ratioP2;P2;SDS_P1;SDS_P2;PMS_P1;PMS_P2;Temp;Humidity;BMP_temperature;BMP_pressure;BME280_temperature;BME280_humidity;BME280_pressure;Samples;Min_cycle;Max_cycle;Signal;HPM_P1;HPM_P2
2023/08/17 00:02:12;;;;;;;10.07;8.93;;;20.60;1.00;;;;;;4954662;28;20197;-81
2023/08/17 00:04:38;;;;;;;9.37;8.30;;;20.60;1.00;;;;;;4955292;28;20430;-81
2023/08/17 00:07:04;;;;;;;10.20;7.17;;;20.60;1.00;;;;;;4955180;28;20492;-80
2023/08/17 00:09:29;;;;;;;9.30;7.13;;;20.60;1.00;;;;;;4964903;28;20211;-80
2023/08/17 00:11:55;;;;;;;12.77;8.47;;;20.60;1.00;;;;;;4969983;28;20894;-79
2023/08/17 00:14:21;;;;;;;7.63;6.83;;;20.50;1.00;;;;;;4959441;28;20187;-79
2023/08/17 00:16:46;;;;;;;9.67;7.83;;;20.50;1.00;;;;;;4966166;28;20716;-82
2023/08/17 00:19:12;;;;;;;10.97;7.23;;;20.50;1.00;;;;;;4971877;28;20188;-83
2023/08/17 00:21:37;;;;;;;8.53;6.40;;;20.50;7.40;;;;;;4965357;28;20647;-81
2023/08/17 00:24:04;;;;;;;7.27;6.40;;;20.50;2.10;;;;;;4965989;28;20266;-82
2023/08/17 00:26:29;;;;;;;7.77;6.90;;;20.40;1.00;;;;;;4968192;28;20196;-79
2023/08/17 00:28:55;;;;;;;8.50;6.60;;;20.40;7.80;;;;;;4968899;28;20444;-81
2023/08/17 00:31:20;;;;;;;10.13;7.00;;;20.40;27.10;;;;;;4964773;28;20274;-80
2023/08/17 00:33:46;;;;;;;9.80;6.63;;;20.40;84.90;;;;;;4968107;28;20187;-81
2023/08/17 00:36:11;;;;;;;8.03;7.00;;;20.40;99.90;;;;;;4962944;28;20658;-81
2023/08/17 00:38:37;;;;;;;6.63;6.03;;;20.30;99.90;;;;;;4965998;28;20188;-80
2023/08/17 00:41:02;;;;;;;7.90;6.90;;;20.30;99.90;;;;;;4964929;28;20213;-81
2023/08/17 00:43:28;;;;;;;9.57;6.30;;;20.30;99.90;;;;;;4972102;28;20201;-81
2023/08/17 00:45:53;;;;;;;7.67;6.97;;;20.30;99.90;;;;;;4963188;28;20193;-80
2023/08/17 00:48:19;;;;;;;8.80;7.67;;;20.20;99.90;;;;;;4967348;28;20205;-81
2023/08/17 00:50:48;;;;;;;8.90;8.10;;;20.20;99.90;;;;;;4974136;28;20223;-80
2023/08/17 00:53:16;;;;;;;11.00;8.17;;;20.20;99.90;;;;;;4967370;28;20533;-82
2023/08/17 00:55:42;;;;;;;11.50;9.03;;;20.30;99.90;;;;;;4974125;28;20438;-80
2023/08/17 00:58:08;;;;;;;9.70;8.70;;;20.20;99.90;;;;;;4965078;28;20441;-79
2023/08/17 01:00:33;;;;;;;11.10;10.00;;;20.10;99.90;;;;;;4962221;28;20435;-79
2023/08/17 01:02:59;;;;;;;12.60;9.77;;;20.10;99.90;;;;;;4964554;28;20431;-81
2023/08/17 01:05:25;;;;;;;11.37;10.27;;;20.10;99.90;;;;;;4965300;28;20191;-81
2023/08/17 01:07:50;;;;;;;11.60;10.50;;;20.00;99.90;;;;;;4957586;28;20187;-79
2023/08/17 01:10:16;;;;;;;12.43;11.23;;;20.00;99.90;;;;;;4969739;28;20588;-81
2023/08/17 01:12:52;;;;;;;12.40;11.30;;;19.90;99.90;;;;;;4959741;28;20200;-80
2023/08/17 01:15:24;;;;;;;16.13;14.67;;;19.90;99.90;;;;;;4966505;28;20439;-79
2023/08/17 01:17:58;;;;;;;15.40;14.00;;;19.80;99.90;;;;;;4970482;28;20452;-81
2023/08/17 01:20:24;;;;;;;19.43;14.13;;;19.80;99.90;;;;;;4966166;28;20897;-82
2023/08/17 01:22:51;;;;;;;17.47;15.67;;;19.80;99.90;;;;;;4978128;28;20457;-81
2023/08/17 01:25:17;;;;;;;16.93;15.37;;;19.80;99.90;;;;;;4970282;28;20446;-81
2023/08/17 01:27:46;;;;;;;17.63;14.90;;;19.80;99.90;;;;;;4982376;28;20824;-81
2023/08/17 01:30:15;;;;;;;16.43;14.87;;;19.80;99.90;;;;;;4958303;28;20298;-81
2023/08/17 01:32:50;;;;;;;16.20;14.70;;;19.80;99.90;;;;;;4967987;28;20449;-79
2023/08/17 01:35:24;;;;;;;16.70;15.10;;;19.70;99.90;;;;;;4966314;28;20517;-80
2023/08/17 01:37:52;;;;;;;16.73;14.97;;;19.70;99.90;;;;;;4983655;28;20497;-82
2023/08/17 01:40:19;;;;;;;15.50;14.10;;;19.70;1.00;;;;;;4961871;28;20463;-79
2023/08/17 01:42:45;;;;;;;13.70;12.40;;;19.70;1.00;;;;;;4961267;28;20459;-81
2023/08/17 01:45:11;;;;;;;13.90;11.37;;;19.70;1.00;;;;;;4969804;28;20432;-80
2023/08/17 01:47:36;;;;;;;10.33;9.43;;;19.70;99.90;;;;;;4967634;28;20462;-79
2023/08/17 01:50:02;;;;;;;13.00;10.80;;;19.80;99.90;;;;;;4959511;28;20270;-80
2023/08/17 01:52:28;;;;;;;10.03;9.03;;;19.80;99.90;;;;;;4957725;28;20271;-78
2023/08/17 01:54:53;;;;;;;12.07;9.70;;;19.80;99.90;;;;;;4981184;28;20188;-79
2023/08/17 01:57:19;;;;;;;10.73;9.63;;;19.90;99.90;;;;;;4963056;28;20434;-80
2023/08/17 01:59:44;;;;;;;10.90;9.60;;;19.90;99.90;;;;;;4962031;28;20202;-81
2023/08/17 02:02:11;;;;;;;13.90;12.60;;;19.80;99.90;;;;;;4966084;28;20206;-81
2023/08/17 02:04:37;;;;;;;16.50;14.90;;;19.80;99.90;;;;;;4971506;28;20181;-79
2023/08/17 02:07:03;;;;;;;17.37;15.50;;;19.80;99.90;;;;;;4965602;28;20978;-81
2023/08/17 02:09:28;;;;;;;15.60;14.00;;;19.80;99.90;;;;;;4970451;28;20203;-78
2023/08/17 02:11:54;;;;;;;16.70;13.37;;;19.80;99.90;;;;;;4987241;28;20472;-82
2023/08/17 02:14:19;;;;;;;22.47;15.03;;;19.80;99.90;;;;;;4968280;28;20605;-79
2023/08/17 02:16:45;;;;;;;16.00;14.40;;;19.70;99.90;;;;;;4961758;28;20194;-81
2023/08/17 02:19:10;;;;;;;13.67;12.30;;;19.70;99.90;;;;;;4963801;28;20946;-82
2023/08/17 02:21:36;;;;;;;14.67;13.20;;;19.70;99.90;;;;;;4959102;28;20200;-80
2023/08/17 02:24:02;;;;;;;13.57;12.27;;;19.70;99.90;;;;;;4972830;28;20666;-80
2023/08/17 02:26:30;;;;;;;12.20;10.77;;;19.70;99.90;;;;;;4977501;28;20185;-84
2023/08/17 02:28:55;;;;;;;12.43;10.67;;;19.60;99.90;;;;;;4973188;28;20450;-79
2023/08/17 02:31:21;;;;;;;12.33;11.20;;;19.60;99.90;;;;;;4967496;28;20474;-80
2023/08/17 02:33:46;;;;;;;15.63;11.10;;;19.60;99.90;;;;;;4963990;28;20196;-81
2023/08/17 02:36:12;;;;;;;10.67;9.67;;;19.60;99.90;;;;;;4971084;28;20667;-81
2023/08/17 02:38:37;;;;;;;10.43;9.30;;;19.60;99.90;;;;;;4971079;28;20201;-81
2023/08/17 02:41:03;;;;;;;10.87;9.60;;;19.60;99.90;;;;;;4974642;28;20222;-81
2023/08/17 02:43:29;;;;;;;12.67;10.37;;;19.60;99.90;;;;;;4966323;28;20278;-80
2023/08/17 02:45:54;;;;;;;10.13;9.13;;;19.50;99.90;;;;;;4972787;28;20712;-79
2023/08/17 02:48:20;;;;;;;11.47;10.20;;;19.50;99.90;;;;;;4964537;28;20215;-82
2023/08/17 02:50:45;;;;;;;14.20;9.27;;;19.50;99.90;;;;;;4964494;28;20274;-80
2023/08/17 02:53:11;;;;;;;13.03;9.60;;;19.50;99.90;;;;;;4957367;28;20184;-79
2023/08/17 02:55:36;;;;;;;11.03;9.00;;;19.60;99.90;;;;;;4957706;28;20655;-81
2023/08/17 02:58:02;;;;;;;12.73;8.77;;;19.60;99.90;;;;;;4969220;28;20266;-80
2023/08/17 03:00:28;;;;;;;9.20;8.30;;;19.60;99.90;;;;;;4969721;28;20557;-82
2023/08/17 03:02:54;;;;;;;9.10;8.20;;;19.60;99.90;;;;;;4986077;28;20440;-81
2023/08/17 03:05:19;;;;;;;13.93;8.73;;;19.60;99.90;;;;;;4969068;28;20312;-81
2023/08/17 03:07:45;;;;;;;10.57;9.47;;;19.60;99.90;;;;;;4980109;28;20447;-79
2023/08/17 03:10:10;;;;;;;9.63;8.70;;;19.60;99.90;;;;;;4971068;28;20231;-81
2023/08/17 03:12:37;;;;;;;19.37;9.10;;;19.60;99.90;;;;;;4963122;28;20202;-82
2023/08/17 03:15:06;;;;;;;10.70;9.60;;;19.60;99.90;;;;;;4964685;28;20194;-81
2023/08/17 03:17:32;;;;;;;9.73;8.73;;;19.50;99.90;;;;;;4970414;28;20488;-79
2023/08/17 03:19:59;;;;;;;10.23;8.17;;;19.50;99.90;;;;;;4958098;28;20431;-81
2023/08/17 03:22:25;;;;;;;9.30;8.40;;;19.50;99.90;;;;;;4956060;28;20185;-80
2023/08/17 03:24:51;;;;;;;10.17;9.10;;;19.50;99.90;;;;;;4968898;28;20960;-81
2023/08/17 03:27:16;;;;;;;11.50;8.47;;;19.50;99.90;;;;;;4963894;28;20202;-80
2023/08/17 03:29:42;;;;;;;8.17;7.40;;;19.50;99.90;;;;;;4972577;28;20246;-82
2023/08/17 03:32:07;;;;;;;9.13;8.23;;;19.50;99.90;;;;;;4957529;28;20217;-79
2023/08/17 03:34:33;;;;;;;9.83;8.83;;;19.60;99.90;;;;;;4988864;28;20240;-79
2023/08/17 03:36:58;;;;;;;10.63;8.63;;;19.50;99.90;;;;;;4967378;28;20572;-80
2023/08/17 03:39:24;;;;;;;11.43;8.40;;;19.50;99.90;;;;;;4969606;28;20279;-80
2023/08/17 03:41:49;;;;;;;12.77;9.53;;;19.50;99.90;;;;;;4964611;28;20328;-81
2023/08/17 03:44:16;;;;;;;9.27;8.40;;;19.50;99.90;;;;;;4961019;28;20263;-80
2023/08/17 03:46:41;;;;;;;11.40;9.03;;;19.50;99.90;;;;;;4966155;28;20184;-81
2023/08/17 03:49:07;;;;;;;14.10;10.17;;;19.50;99.90;;;;;;4960013;28;20459;-81
2023/08/17 03:51:32;;;;;;;12.90;11.53;;;19.40;99.90;;;;;;4971623;28;20700;-81
2023/08/17 03:53:58;;;;;;;15.77;11.60;;;19.40;99.90;;;;;;4962866;28;20762;-81
2023/08/17 03:56:23;;;;;;;16.33;12.10;;;19.40;99.90;;;;;;4974069;28;20583;-82
2023/08/17 03:58:50;;;;;;;14.80;12.70;;;19.40;99.90;;;;;;4968692;28;20209;-80
2023/08/17 04:01:15;;;;;;;15.33;13.30;;;19.40;99.90;;;;;;4958991;28;20298;-82
2023/08/17 04:03:41;;;;;;;17.33;14.90;;;19.40;99.90;;;;;;4962757;28;21319;-80
2023/08/17 04:06:10;;;;;;;20.47;14.90;;;19.40;99.90;;;;;;4966191;28;20185;-81
2023/08/17 04:08:36;;;;;;;18.87;16.17;;;19.40;99.90;;;;;;4956955;28;20687;-81
2023/08/17 04:11:02;;;;;;;16.03;14.43;;;19.40;99.90;;;;;;4955413;28;20514;-82
2023/08/17 04:13:27;;;;;;;17.67;14.83;;;19.40;99.90;;;;;;4963608;28;20481;-81
2023/08/17 04:15:53;;;;;;;17.33;15.33;;;19.40;99.90;;;;;;4968696;28;20706;-81
2023/08/17 04:18:18;;;;;;;18.40;14.40;;;19.40;99.90;;;;;;4960337;28;20198;-82
2023/08/17 04:20:44;;;;;;;16.20;14.60;;;19.40;99.90;;;;;;4969885;28;20213;-83
2023/08/17 04:23:09;;;;;;;17.70;15.10;;;19.30;99.90;;;;;;4956993;28;20195;-81
2023/08/17 04:25:35;;;;;;;15.47;13.97;;;19.30;99.90;;;;;;4967984;28;20198;-81
2023/08/17 04:28:00;;;;;;;14.33;12.87;;;19.30;99.90;;;;;;4969076;28;20198;-81
2023/08/17 04:30:26;;;;;;;16.03;14.20;;;19.30;99.90;;;;;;4966448;28;20230;-81
2023/08/17 04:32:52;;;;;;;14.10;12.47;;;19.30;99.90;;;;;;4970196;28;20652;-83
2023/08/17 04:35:18;;;;;;;14.53;12.30;;;19.30;99.90;;;;;;4952620;28;20649;-81
2023/08/17 04:37:44;;;;;;;14.70;13.10;;;19.30;99.90;;;;;;4961807;28;20685;-82
2023/08/17 04:40:10;;;;;;;13.93;12.20;;;19.40;99.90;;;;;;4969009;28;20457;-81
2023/08/17 04:42:36;;;;;;;18.37;13.73;;;19.40;99.90;;;;;;4971658;28;20187;-81
2023/08/17 04:45:01;;;;;;;16.60;13.43;;;19.40;99.90;;;;;;4969954;28;20445;-80
2023/08/17 04:47:27;;;;;;;14.70;12.50;;;19.30;99.90;;;;;;4963088;28;20447;-81
2023/08/17 04:49:53;;;;;;;17.97;12.00;;;19.30;99.90;;;;;;4961070;28;20211;-81
2023/08/17 04:52:18;;;;;;;14.90;11.80;;;19.30;99.90;;;;;;4969188;28;20198;-81
2023/08/17 04:54:44;;;;;;;13.67;11.90;;;19.30;99.90;;;;;;4954490;28;20254;-80
2023/08/17 04:57:10;;;;;;;20.63;13.00;;;19.30;99.90;;;;;;4975351;28;20199;-79
2023/08/17 04:59:36;;;;;;;17.60;14.27;;;19.40;99.90;;;;;;4954911;28;20693;-79
2023/08/17 05:02:01;;;;;;;16.00;13.70;;;19.40;31.60;;;;;;4968229;28;20444;-81
2023/08/17 05:04:27;;;;;;;18.50;14.80;;;19.40;1.00;;;;;;4953888;28;20247;-82
2023/08/17 05:06:52;;;;;;;19.67;15.20;;;19.40;1.00;;;;;;4953433;28;20192;-82
2023/08/17 05:09:18;;;;;;;18.90;16.20;;;19.30;1.00;;;;;;4977230;28;20176;-81
2023/08/17 05:11:43;;;;;;;25.67;15.60;;;19.30;1.00;;;;;;4964718;28;20210;-80
2023/08/17 05:14:09;;;;;;;17.23;14.30;;;19.30;1.00;;;;;;4970748;28;20184;-81
2023/08/17 05:16:34;;;;;;;18.13;14.20;;;19.20;1.00;;;;;;4963282;28;20915;-80
2023/08/17 05:19:00;;;;;;;21.63;15.67;;;19.20;1.00;;;;;;4961266;28;20188;-80
2023/08/17 05:21:26;;;;;;;19.63;15.47;;;19.20;1.00;;;;;;4963095;28;20239;-83
2023/08/17 05:23:52;;;;;;;21.43;16.57;;;19.30;1.00;;;;;;4968032;28;20245;-80
2023/08/17 05:26:17;;;;;;;20.30;15.37;;;19.20;1.00;;;;;;4977166;28;20438;-80
2023/08/17 05:28:44;;;;;;;19.80;16.50;;;19.20;1.00;;;;;;4956494;28;20199;-80
2023/08/17 05:31:10;;;;;;;20.73;15.37;;;19.20;22.20;;;;;;4955376;28;20574;-83
2023/08/17 05:33:36;;;;;;;23.07;15.90;;;19.20;45.00;;;;;;4956404;28;20445;-80
2023/08/17 05:36:01;;;;;;;22.40;16.50;;;19.20;28.50;;;;;;4965889;28;20232;-80
2023/08/17 05:38:27;;;;;;;21.27;15.90;;;19.20;56.60;;;;;;4970009;28;20250;-81
2023/08/17 05:40:56;;;;;;;18.83;15.23;;;19.20;19.10;;;;;;4971087;28;20211;-79
2023/08/17 05:43:22;;;;;;;26.33;15.93;;;19.10;99.90;;;;;;4964338;28;20231;-79
2023/08/17 05:45:48;;;;;;;25.30;15.67;;;19.10;99.90;;;;;;4969440;28;20592;-81
2023/08/17 05:48:13;;;;;;;19.30;15.37;;;19.10;99.90;;;;;;4961390;28;20458;-82
2023/08/17 05:50:41;;;;;;;18.53;14.80;;;19.20;99.90;;;;;;4964575;28;20223;-81
2023/08/17 05:53:07;;;;;;;20.40;14.00;;;19.20;99.90;;;;;;4964219;28;20188;-80
2023/08/17 05:55:32;;;;;;;20.50;15.30;;;19.20;99.90;;;;;;4962197;28;20811;-80
2023/08/17 05:57:58;;;;;;;20.67;13.50;;;19.20;77.50;;;;;;4983161;28;20684;-81
2023/08/17 06:00:23;;;;;;;17.90;13.43;;;19.30;18.30;;;;;;4966012;28;20211;-80
2023/08/17 06:02:51;;;;;;;16.30;14.40;;;19.40;16.80;;;;;;4965158;28;20196;-81
2023/08/17 06:05:17;;;;;;;16.80;13.67;;;19.50;1.00;;;;;;4963033;28;20258;-80
2023/08/17 06:07:42;;;;;;;19.40;13.50;;;19.60;1.00;;;;;;4964235;28;20486;-82
2023/08/17 06:10:09;;;;;;;21.00;16.37;;;19.60;1.00;;;;;;4962443;28;20880;-81
2023/08/17 06:12:34;;;;;;;18.63;14.93;;;19.60;99.90;;;;;;4964409;28;20182;-82
2023/08/17 06:15:02;;;;;;;19.87;15.47;;;19.80;99.90;;;;;;4971601;28;20470;-81
2023/08/17 06:17:28;;;;;;;19.67;15.60;;;19.90;99.90;;;;;;4962226;28;20188;-81
2023/08/17 06:19:53;;;;;;;21.80;16.60;;;20.00;99.90;;;;;;4965203;28;20465;-80
2023/08/17 06:22:19;;;;;;;20.03;17.00;;;20.00;88.40;;;;;;4969538;28;20188;-80
2023/08/17 06:24:44;;;;;;;24.43;17.23;;;20.00;1.00;;;;;;4967407;28;20189;-81
2023/08/17 06:27:13;;;;;;;27.27;16.17;;;20.10;1.00;;;;;;4975960;28;20551;-81
2023/08/17 06:29:39;;;;;;;18.80;16.43;;;20.10;99.90;;;;;;4967160;28;20295;-82
2023/08/17 06:32:05;;;;;;;22.33;16.93;;;20.10;99.90;;;;;;4963678;28;20607;-80
2023/08/17 06:34:30;;;;;;;19.90;16.13;;;20.20;99.90;;;;;;4962767;28;20553;-82
2023/08/17 06:37:02;;;;;;;19.50;15.97;;;20.20;99.90;;;;;;4959726;28;20201;-82
2023/08/17 06:39:28;;;;;;;22.67;17.80;;;20.20;1.00;;;;;;4957928;28;20573;-82
2023/08/17 06:41:54;;;;;;;20.00;16.60;;;20.30;99.90;;;;;;4966648;28;20443;-81
2023/08/17 06:44:19;;;;;;;22.47;18.23;;;20.30;99.90;;;;;;4960192;28;20187;-80
2023/08/17 06:46:45;;;;;;;20.57;16.37;;;20.40;99.90;;;;;;4968104;28;20446;-82
2023/08/17 06:49:12;;;;;;;19.70;17.00;;;20.50;94.80;;;;;;4965804;28;20246;-82
2023/08/17 06:51:39;;;;;;;18.97;15.57;;;20.50;1.00;;;;;;4974361;28;20518;-81
2023/08/17 06:54:07;;;;;;;18.53;16.00;;;20.60;1.00;;;;;;4961621;28;20542;-82
2023/08/17 06:56:32;;;;;;;20.60;16.47;;;20.70;1.00;;;;;;4970693;28;20206;-81
2023/08/17 06:58:58;;;;;;;21.40;17.17;;;20.80;99.90;;;;;;4971329;28;20525;-81
2023/08/17 07:01:23;;;;;;;18.27;15.67;;;20.80;1.00;;;;;;4958379;28;20216;-81
2023/08/17 07:03:49;;;;;;;29.70;17.43;;;20.90;1.00;;;;;;4956830;28;20190;-81
2023/08/17 07:06:14;;;;;;;19.20;16.63;;;20.80;99.90;;;;;;4972461;28;20200;-81
2023/08/17 07:08:40;;;;;;;18.83;16.17;;;20.80;1.00;;;;;;4964308;28;20264;-82
2023/08/17 07:11:06;;;;;;;18.07;16.10;;;20.90;99.90;;;;;;4965835;28;20222;-82
2023/08/17 07:13:31;;;;;;;18.03;16.03;;;20.80;99.90;;;;;;4963725;28;20183;-79
2023/08/17 07:15:57;;;;;;;20.57;17.20;;;20.90;99.90;;;;;;4966672;28;21109;-81
2023/08/17 07:18:22;;;;;;;22.70;17.63;;;20.90;99.90;;;;;;4965124;28;20218;-80
2023/08/17 07:20:49;;;;;;;22.40;17.40;;;20.90;99.90;;;;;;4959386;28;20233;-82
2023/08/17 07:23:14;;;;;;;18.77;16.77;;;20.90;99.90;;;;;;4957698;28;20213;-81
2023/08/17 07:25:40;;;;;;;18.77;16.87;;;20.90;1.00;;;;;;4968739;28;20442;-81
2023/08/17 07:28:06;;;;;;;23.47;19.90;;;20.90;34.80;;;;;;4960602;28;20248;-81
2023/08/17 07:30:31;;;;;;;19.67;17.53;;;20.80;99.90;;;;;;4958303;28;20216;-82
2023/08/17 07:32:57;;;;;;;21.73;17.67;;;20.80;99.90;;;;;;4956825;28;20185;-83
2023/08/17 07:35:25;;;;;;;19.90;18.00;;;20.90;99.90;;;;;;4965047;28;20689;-82
2023/08/17 07:37:50;;;;;;;21.20;16.73;;;20.90;99.90;;;;;;4974396;28;20193;-83
2023/08/17 07:40:16;;;;;;;20.50;16.30;;;20.90;27.30;;;;;;4976205;28;20444;-83
2023/08/17 07:42:42;;;;;;;18.80;16.90;;;21.10;1.00;;;;;;4969832;28;20183;-81
2023/08/17 07:45:07;;;;;;;20.10;18.07;;;21.10;1.00;;;;;;4964866;28;20183;-81
2023/08/17 07:47:36;;;;;;;19.50;17.40;;;21.20;99.90;;;;;;4960540;28;20193;-82
2023/08/17 07:50:02;;;;;;;18.33;16.40;;;21.20;99.90;;;;;;4964105;28;20501;-83
2023/08/17 07:52:28;;;;;;;18.30;16.40;;;21.20;99.90;;;;;;4964728;28;20438;-81
2023/08/17 07:54:53;;;;;;;22.37;16.23;;;21.30;99.90;;;;;;4966044;28;20452;-83
2023/08/17 07:57:19;;;;;;;17.17;15.47;;;21.40;99.90;;;;;;4976024;28;20651;-81
2023/08/17 07:59:44;;;;;;;18.60;16.30;;;21.60;99.90;;;;;;4963565;28;20207;-82
2023/08/17 08:02:10;;;;;;;17.47;15.00;;;21.80;1.00;;;;;;4966072;28;20191;-81
2023/08/17 08:04:35;;;;;;;16.70;14.50;;;22.00;1.00;;;;;;4975928;28;20184;-80
2023/08/17 08:07:01;;;;;;;20.43;18.37;;;22.10;99.90;;;;;;4966043;28;20201;-81
2023/08/17 08:09:27;;;;;;;23.77;19.83;;;22.20;99.90;;;;;;4962566;28;20188;-83
2023/08/17 08:11:52;;;;;;;23.73;20.13;;;22.30;32.30;;;;;;4957197;28;20214;-82
2023/08/17 08:14:18;;;;;;;27.60;22.00;;;22.30;27.80;;;;;;4963982;28;20210;-81
2023/08/17 08:16:43;;;;;;;23.70;21.20;;;22.40;1.00;;;;;;4967831;28;20196;-83
2023/08/17 08:19:09;;;;;;;26.00;23.30;;;22.40;1.00;;;;;;4959560;28;20250;-81
2023/08/17 08:21:34;;;;;;;26.43;23.77;;;22.40;1.00;;;;;;4967871;28;20199;-81
2023/08/17 08:24:00;;;;;;;31.73;22.97;;;22.40;1.00;;;;;;4960418;28;20196;-81
2023/08/17 08:26:25;;;;;;;27.43;24.83;;;22.40;1.00;;;;;;4970182;28;20184;-81
2023/08/17 08:28:51;;;;;;;25.57;22.87;;;22.40;1.00;;;;;;4971760;28;20304;-81
2023/08/17 08:31:16;;;;;;;22.80;20.00;;;22.50;1.00;;;;;;4954167;28;20224;-83
2023/08/17 08:33:43;;;;;;;22.40;20.20;;;22.50;1.00;;;;;;4962182;28;20274;-82
2023/08/17 08:36:09;;;;;;;23.10;19.30;;;22.50;1.00;;;;;;4970241;28;20593;-81
2023/08/17 08:38:34;;;;;;;23.30;19.37;;;22.50;1.00;;;;;;4957636;28;20472;-82
2023/08/17 08:41:02;;;;;;;25.33;22.53;;;22.60;1.00;;;;;;4963021;28;20216;-82
2023/08/17 08:43:28;;;;;;;27.60;24.00;;;22.60;1.00;;;;;;4970021;28;20264;-81
2023/08/17 08:45:57;;;;;;;25.70;22.83;;;22.60;1.00;;;;;;4958363;28;20440;-80
2023/08/17 08:48:25;;;;;;;28.07;24.63;;;22.70;1.00;;;;;;4968946;28;20216;-83
2023/08/17 08:50:54;;;;;;;30.00;26.73;;;22.90;99.90;;;;;;4963824;28;20531;-82
2023/08/17 08:53:37;;;;;;;33.20;28.07;;;23.10;99.90;;;;;;4964493;28;20443;-83
2023/08/17 08:56:03;;;;;;;36.10;30.20;;;23.30;99.90;;;;;;4963833;28;20430;-81
2023/08/17 08:59:11;;;;;;;31.40;28.20;;;23.60;99.90;;;;;;4957427;28;20610;-82
2023/08/17 09:01:38;;;;;;;36.07;29.90;;;23.70;99.90;;;;;;4961493;28;20462;-83
2023/08/17 09:04:05;;;;;;;36.70;30.37;;;23.60;99.90;;;;;;4962604;28;20803;-83
2023/08/17 09:06:32;;;;;;;36.60;32.40;;;23.60;99.90;;;;;;4966608;28;20463;-82
2023/08/17 09:08:58;;;;;;;39.53;32.27;;;23.40;99.90;;;;;;4964083;28;20454;-81
2023/08/17 09:11:24;;;;;;;36.73;32.57;;;23.30;99.90;;;;;;4959290;28;20491;-83
2023/08/17 09:13:50;;;;;;;37.30;31.60;;;23.30;99.90;;;;;;4961828;28;20928;-83
2023/08/17 09:16:15;;;;;;;41.30;33.20;;;23.40;99.90;;;;;;4965980;28;20201;-82
2023/08/17 09:18:41;;;;;;;44.67;32.83;;;23.50;99.90;;;;;;4967230;28;20481;-80
2023/08/17 09:21:07;;;;;;;37.27;33.47;;;23.50;99.90;;;;;;4967034;28;20226;-82
2023/08/17 09:23:32;;;;;;;35.37;31.70;;;23.50;99.90;;;;;;4970774;28;20445;-83
2023/08/17 09:26:07;;;;;;;34.33;30.77;;;23.40;99.90;;;;;;4962780;28;20277;-81
2023/08/17 09:28:33;;;;;;;39.17;32.03;;;23.40;99.90;;;;;;4976352;28;20192;-82
2023/08/17 09:31:03;;;;;;;36.03;31.90;;;23.50;99.90;;;;;;4967141;28;20489;-81
2023/08/17 09:33:31;;;;;;;35.10;31.37;;;23.60;99.90;;;;;;4963611;28;20320;-81
2023/08/17 09:35:58;;;;;;;39.10;32.40;;;23.80;99.90;;;;;;4963626;28;20851;-82
2023/08/17 09:38:24;;;;;;;36.13;29.77;;;24.10;99.90;;;;;;4960731;28;20457;-82
2023/08/17 09:40:50;;;;;;;33.93;29.93;;;24.20;78.90;;;;;;4959389;28;20489;-83
2023/08/17 09:43:17;;;;;;;34.70;30.90;;;24.30;50.60;;;;;;4968155;28;20447;-81
2023/08/17 09:45:47;;;;;;;32.80;28.90;;;24.30;26.20;;;;;;4960878;28;20447;-82
2023/08/17 09:48:16;;;;;;;35.93;32.23;;;24.40;10.70;;;;;;4965310;28;20573;-82
2023/08/17 09:50:42;;;;;;;36.13;31.80;;;24.40;1.00;;;;;;4962256;28;20486;-81
2023/08/17 09:53:15;;;;;;;34.80;30.80;;;24.30;1.00;;;;;;4959178;28;20444;-82
2023/08/17 09:55:42;;;;;;;34.37;30.60;;;24.30;1.00;;;;;;4966632;28;20438;-83
2023/08/17 09:58:08;;;;;;;34.13;29.07;;;24.30;1.00;;;;;;4960989;28;20446;-83
2023/08/17 10:00:35;;;;;;;32.17;28.87;;;24.20;1.00;;;;;;4969326;28;20504;-82
2023/08/17 10:03:03;;;;;;;40.70;32.37;;;24.00;1.00;;;;;;4960615;28;20462;-80
2023/08/17 10:05:39;;;;;;;36.00;31.60;;;23.90;6.00;;;;;;4966534;28;20456;-81
2023/08/17 10:08:07;;;;;;;39.93;31.77;;;23.70;26.50;;;;;;4964877;28;20822;-80
2023/08/17 10:10:35;;;;;;;38.40;33.20;;;23.60;48.80;;;;;;4966067;28;21017;-83
2023/08/17 10:13:26;;;;;;;37.47;33.50;;;23.50;70.30;;;;;;4959415;28;20526;-83
2023/08/17 10:16:14;;;;;;;44.73;36.37;;;23.60;94.20;;;;;;4961993;28;20443;-82
2023/08/17 10:19:13;;;;;;;39.90;33.57;;;23.70;68.60;;;;;;4958242;28;20463;-81
2023/08/17 10:21:53;;;;;;;43.13;37.20;;;23.70;86.40;;;;;;4959322;28;20457;-81
2023/08/17 10:24:19;;;;;;;39.97;35.60;;;23.50;99.90;;;;;;4965757;28;20457;-83
2023/08/17 10:26:46;;;;;;;43.23;36.33;;;23.40;99.90;;;;;;4970068;28;20449;-82
2023/08/17 10:29:12;;;;;;;47.07;39.77;;;23.50;99.90;;;;;;4977964;28;20418;-83
2023/08/17 10:31:38;;;;;;;48.23;38.37;;;23.60;99.90;;;;;;4971880;28;20525;-83
2023/08/17 10:34:04;;;;;;;44.93;40.13;;;23.60;99.90;;;;;;4962334;28;20436;-83
2023/08/17 10:36:31;;;;;;;41.80;37.20;;;23.70;99.90;;;;;;4968887;28;20539;-83
2023/08/17 10:39:26;;;;;;;43.40;37.07;;;23.80;88.70;;;;;;4965836;28;20430;-81
2023/08/17 10:41:52;;;;;;;45.27;37.83;;;23.80;64.60;;;;;;4965816;28;20465;-83
2023/08/17 10:44:38;;;;;;;30.73;27.50;;;24.00;56.50;;;;;;4967511;28;20446;-81
2023/08/17 10:47:32;;;;;;;32.60;29.10;;;24.20;31.90;;;;;;4969063;28;20486;-80
2023/08/17 10:49:58;;;;;;;31.30;28.03;;;24.30;9.80;;;;;;4965081;28;20479;-83
2023/08/17 10:52:35;;;;;;;29.57;26.37;;;24.20;1.00;;;;;;4958248;28;21000;-83
2023/08/17 10:55:06;;;;;;;28.47;25.60;;;24.40;1.00;;;;;;4965860;28;20453;-82
2023/08/17 10:57:37;;;;;;;32.53;25.00;;;24.50;1.00;;;;;;4965154;28;20446;-82
2023/08/17 11:00:14;;;;;;;29.00;25.83;;;24.50;1.00;;;;;;4962276;28;21218;-83
2023/08/17 11:02:39;;;;;;;25.50;21.70;;;24.50;1.00;;;;;;4964554;28;20487;-83
2023/08/17 11:05:07;;;;;;;28.43;21.90;;;24.50;1.00;;;;;;4963818;28;20495;-81
2023/08/17 11:07:40;;;;;;;22.20;19.80;;;24.30;1.00;;;;;;4956806;28;20198;-81
2023/08/17 11:10:20;;;;;;;20.37;18.50;;;24.40;1.00;;;;;;4962671;28;20455;-81
2023/08/17 11:12:46;;;;;;;25.97;18.53;;;24.40;1.00;;;;;;4957818;28;20535;-83
2023/08/17 11:15:12;;;;;;;18.50;16.50;;;24.50;1.00;;;;;;4961656;28;20540;-83
2023/08/17 11:17:37;;;;;;;20.27;18.00;;;24.60;1.00;;;;;;4960716;28;20840;-81
2023/08/17 11:20:04;;;;;;;19.80;16.63;;;24.70;1.00;;;;;;4964121;28;20213;-82
2023/08/17 11:22:30;;;;;;;19.30;17.23;;;24.80;1.00;;;;;;4953773;28;20196;-84
2023/08/17 11:24:55;;;;;;;22.80;18.47;;;24.70;1.00;;;;;;4976868;28;20451;-83
2023/08/17 11:27:21;;;;;;;23.00;18.13;;;24.60;1.00;;;;;;4962924;28;20203;-81
2023/08/17 11:29:47;;;;;;;21.23;17.93;;;24.60;1.00;;;;;;4969151;28;20577;-83
2023/08/17 11:32:16;;;;;;;23.07;17.63;;;24.60;1.00;;;;;;4969930;28;20654;-84
2023/08/17 11:34:42;;;;;;;24.07;20.30;;;24.60;1.00;;;;;;4960925;28;20188;-82
2023/08/17 11:37:07;;;;;;;22.07;17.73;;;24.50;1.00;;;;;;4960939;28;20978;-83
2023/08/17 11:39:36;;;;;;;16.57;14.70;;;24.40;1.00;;;;;;4962804;28;20211;-83
2023/08/17 11:42:01;;;;;;;18.33;16.47;;;24.30;1.00;;;;;;4962580;28;20204;-82
2023/08/17 11:44:27;;;;;;;17.10;14.93;;;24.30;1.00;;;;;;4958504;28;20452;-84
2023/08/17 11:46:53;;;;;;;17.43;15.23;;;24.20;1.00;;;;;;4962713;28;20197;-84
2023/08/17 11:49:19;;;;;;;18.70;16.17;;;24.20;1.00;;;;;;4961940;28;20234;-84
2023/08/17 11:51:44;;;;;;;18.07;14.90;;;24.10;1.00;;;;;;4961084;28;20502;-83
2023/08/17 11:54:10;;;;;;;19.00;15.67;;;24.00;1.00;;;;;;4966229;28;20219;-84
2023/08/17 11:56:37;;;;;;;20.37;18.27;;;24.10;1.00;;;;;;4982587;28;20470;-81
2023/08/17 11:59:11;;;;;;;24.67;20.60;;;24.20;1.00;;;;;;4971665;28;20250;-81
2023/08/17 12:01:36;;;;;;;26.43;20.70;;;24.10;1.00;;;;;;4964475;28;20517;-82
2023/08/17 12:04:04;;;;;;;29.63;23.67;;;23.90;1.00;;;;;;4961455;28;20494;-83
2023/08/17 12:06:31;;;;;;;25.93;20.13;;;23.80;1.00;;;;;;4960730;28;21304;-84
2023/08/17 12:08:56;;;;;;;25.40;20.57;;;23.90;1.70;;;;;;4958925;28;20534;-82
2023/08/17 12:11:24;;;;;;;31.47;21.50;;;24.00;7.10;;;;;;4961515;28;21515;-81
2023/08/17 12:13:51;;;;;;;22.60;19.30;;;24.00;11.60;;;;;;4959294;28;20187;-81
2023/08/17 12:16:18;;;;;;;26.90;19.90;;;24.20;1.40;;;;;;4962032;28;20454;-83
2023/08/17 12:18:51;;;;;;;23.00;19.87;;;24.20;1.00;;;;;;4959978;28;20445;-82
2023/08/17 12:21:19;;;;;;;21.53;17.20;;;24.20;1.00;;;;;;4956259;28;20487;-82
2023/08/17 12:23:45;;;;;;;25.03;19.00;;;24.20;1.00;;;;;;4974736;28;20447;-83
2023/08/17 12:26:17;;;;;;;23.60;18.60;;;24.20;1.00;;;;;;4959598;28;20458;-82
2023/08/17 12:28:43;;;;;;;25.60;20.53;;;24.20;1.00;;;;;;4962091;28;20199;-82
2023/08/17 12:31:08;;;;;;;23.87;18.67;;;24.30;1.00;;;;;;4961057;28;20482;-83
2023/08/17 12:33:34;;;;;;;25.77;18.93;;;24.30;1.00;;;;;;4959101;28;20191;-82